Accueil
METAR-TAF:

METAR-TAF

Aéroports :

Aérodrome de Samedan-Engadin

Saint-Moritz, Suisse

latitude: 46-32-03N, longitude: 9-53-03E, altitude: 1707 m

Observation

Le bulletin a été fait il y a 38 minutes, à 09:20 UTC
Vent 4 kt de direction variable
Température 11°C
Humidité 43%
Pression 1018 hPa
Visibilité 10 km ou plus
Nuages fragmentés à une hauteur de 6000 ft

METAR: LSZS 300920Z VRB04KT 9999 BKN060 11/M01 Q1018 RMK D

Heure: 11:58 (09:58 UTC)

Prévision

Le bulletin a été fait il y a 1 heure et 33 minutes, à 08:25 UTC
Prévision valable du 30 à 09 UTC au 30 à 18 UTC
Vent 2 kt de direction variable
Visibilité 10 km ou plus
Nuages fragmentés à une hauteur de 6000 ft
Probabilité 30% :
Temporairement
du 30 à 11 UTC au 30 à 18 UTC
Vent 12 kt de nord-ouest

TAF: LSZS 300825Z 3009/3018 VRB02KT 9999 BKN060 TX13/3014Z PROB30 TEMPO 3011/3018 31012KT

Observations et prévisions météorologiques de plus de 4000 aéroports (messages METAR et TAF).

Les stations disponibles sont représentées par des disques jaunes et rouges sur la carte.

Passer la souris dessus pour voir le nom de la station.

Cliquer dessus pour voir les observations et prévisions météorologiques.

Pour changer de carte: cliquez sur les boutons verts avec une croix noire pour zoomer, sur le bouton vert avec un tiret pour effectuer un zoom arrière, ou sur les flèches vertes pour les cartes adjacentes.


METAR-TAF: